Iver, United Kingdom
Current Conditions -  °F | °C
As of 2:20 AM on Saturday 29 Nov 2014 (Local Time) from EGLL Reporting Station
Clear Clear  
Wind Chill: 52°   Ceiling: Unl
Heat Index: 52°   Visibility: 6mi
Dew Point: 48°   Wind: 7mph
Humidity: 88%   Direction: 80°E
Pressure: 29.74"   Gusts: NA
Location:  51.5°N, 0.5°W
Report Text: EGLL 290220Z AUTO 08006KT 9000 NCD 11/09 Q1007
Loading
Personal Weather Stations






























Interactive Weather Map New forecast layout! Learn more

10-Day Weather Forecast

Advertisements
Track Severe Weather on mobile